Time;durP1;ratioP1;P1;durP2;ratioP2;P2;SDS_P1;SDS_P2;PMS_P1;PMS_P2;Temp;Humidity;BMP_temperature;BMP_pressure;BME280_temperature;BME280_humidity;BME280_pressure;Samples;Min_cycle;Max_cycle;Signal;HPM_P1;HPM_P2
2023/07/07 00:01:37;;;;;;;7.17;4.67;;;;;;;17.72;94.91;100411.69;1453986;89;21650;-85
2023/07/07 00:04:04;;;;;;;9.23;3.80;;;;;;;17.71;94.64;100414.55;1452397;89;21369;-84
2023/07/07 00:06:30;;;;;;;8.57;4.70;;;;;;;17.68;94.38;100414.94;1450205;89;21391;-84
2023/07/07 00:08:56;;;;;;;7.17;3.70;;;;;;;17.63;94.66;100418.18;1451645;89;21360;-83
2023/07/07 00:11:23;;;;;;;10.13;5.07;;;;;;;17.59;95.38;100421.76;1455461;89;22439;-83
2023/07/07 00:13:57;;;;;;;7.50;4.40;;;;;;;17.55;95.36;100421.84;1450970;90;21515;-85
2023/07/07 00:16:20;;;;;;;8.20;4.37;;;;;;;17.53;95.52;100424.39;1445162;90;21435;-85
2023/07/07 00:18:47;;;;;;;6.23;4.60;;;;;;;17.46;96.97;100418.96;1447611;90;21405;-85
2023/07/07 00:21:13;;;;;;;10.07;4.83;;;;;;;17.42;97.67;100420.37;1450986;90;21405;-83
2023/07/07 00:23:39;;;;;;;6.53;3.53;;;;;;;17.42;97.53;100423.05;1444500;89;22468;-85
2023/07/07 00:26:09;;;;;;;7.63;4.27;;;;;;;17.39;97.88;100418.61;1449359;90;21317;-83
2023/07/07 00:28:35;;;;;;;8.43;4.80;;;;;;;17.34;98.59;100416.50;1449016;89;21915;-84
2023/07/07 00:31:02;;;;;;;9.00;5.07;;;;;;;17.34;98.58;100418.66;1448730;89;21383;-85
2023/07/07 00:33:28;;;;;;;11.07;4.40;;;;;;;17.31;99.42;100424.91;1449582;89;21390;-85
2023/07/07 00:35:55;;;;;;;6.77;4.40;;;;;;;17.28;99.10;100426.11;1454853;88;21412;-85
2023/07/07 00:38:21;;;;;;;9.67;4.73;;;;;;;17.29;99.65;100422.92;1451875;89;21331;-84
2023/07/07 00:40:49;;;;;;;11.47;3.93;;;;;;;17.32;98.92;100426.55;1453084;89;22335;-84
2023/07/07 00:43:19;;;;;;;9.57;4.47;;;;;;;17.33;98.87;100427.71;1451072;90;21612;-82
2023/07/07 00:45:46;;;;;;;8.08;4.15;;;;;;;17.35;99.34;100420.33;1450071;90;21361;-83
2023/07/07 00:48:25;;;;;;;7.83;4.37;;;;;;;17.35;100.00;100419.51;1457128;89;21434;-85
2023/07/07 00:51:16;;;;;;;10.67;5.37;;;;;;;17.35;100.00;100422.19;1463613;89;21463;-85
2023/07/07 00:53:46;;;;;;;10.80;4.80;;;;;;;17.32;100.00;100426.06;1450743;89;21597;-83
2023/07/07 00:56:21;;;;;;;8.15;4.85;;;;;;;17.31;100.00;100436.94;1445039;89;21405;-84
2023/07/07 00:58:47;;;;;;;12.43;6.37;;;;;;;17.34;100.00;100436.56;1446004;89;22270;-85
2023/07/07 01:01:17;;;;;;;8.27;4.93;;;;;;;17.33;100.00;100429.56;1451745;89;21382;-86
2023/07/07 01:03:54;;;;;;;7.08;4.65;;;;;;;17.32;100.00;100438.59;1443018;89;21531;-84
2023/07/07 02:06:06;;;;;;;7.77;5.37;;;;;;;17.18;100.00;100463.58;1403860;89;21522;-80
2023/07/07 02:08:32;;;;;;;12.90;5.33;;;;;;;17.04;100.00;100463.42;1449628;89;21612;-81
2023/07/07 02:10:58;;;;;;;14.83;6.70;;;;;;;16.98;100.00;100460.17;1450437;89;21944;-83
2023/07/07 02:13:24;;;;;;;14.27;5.47;;;;;;;16.84;100.00;100461.86;1452243;89;21555;-83
2023/07/07 02:15:51;;;;;;;11.37;5.07;;;;;;;16.70;100.00;100463.50;1442362;89;21375;-81
2023/07/07 02:18:19;;;;;;;6.67;4.17;;;;;;;16.57;100.00;100457.16;1451914;89;22233;-81
2023/07/07 02:20:46;;;;;;;10.90;5.20;;;;;;;16.49;100.00;100452.77;1442192;88;21353;-81
2023/07/07 02:23:12;;;;;;;9.00;4.37;;;;;;;16.46;100.00;100457.14;1450657;89;21376;-82
2023/07/07 02:25:38;;;;;;;8.50;4.07;;;;;;;16.45;100.00;100460.80;1455540;90;21450;-81
2023/07/07 02:28:04;;;;;;;6.13;4.10;;;;;;;16.36;100.00;100469.94;1458491;89;22263;-82
2023/07/07 02:30:30;;;;;;;5.77;4.47;;;;;;;16.38;100.00;100467.92;1444408;89;21449;-85
2023/07/07 02:32:57;;;;;;;9.10;5.37;;;;;;;16.36;100.00;100468.59;1444747;90;21405;-82
2023/07/07 02:35:23;;;;;;;12.30;4.90;;;;;;;16.38;100.00;100470.59;1458054;89;21442;-83
2023/07/07 02:37:49;;;;;;;7.53;4.23;;;;;;;16.38;100.00;100466.06;1446423;89;22411;-81
2023/07/07 02:40:15;;;;;;;9.10;4.53;;;;;;;16.37;100.00;100463.09;1446461;90;21488;-81
2023/07/07 02:42:41;;;;;;;6.67;4.83;;;;;;;16.34;100.00;100464.80;1447381;89;21510;-83
2023/07/07 02:45:08;;;;;;;9.47;6.23;;;;;;;16.30;100.00;100456.81;1447158;89;21384;-81
2023/07/07 02:47:34;;;;;;;8.30;4.17;;;;;;;16.29;100.00;100464.51;1454632;89;21413;-80
2023/07/07 02:50:01;;;;;;;12.57;4.97;;;;;;;16.28;100.00;100462.01;1447693;90;22072;-80
2023/07/07 02:52:28;;;;;;;6.00;4.77;;;;;;;16.27;100.00;100473.72;1451567;89;21434;-79
2023/07/07 02:54:54;;;;;;;6.13;4.30;;;;;;;16.25;100.00;100479.22;1451710;89;21567;-80
2023/07/07 02:57:20;;;;;;;8.83;4.20;;;;;;;16.24;100.00;100473.06;1453624;89;21449;-80
2023/07/07 02:59:47;;;;;;;8.40;4.60;;;;;;;16.25;100.00;100471.21;1448305;88;22048;-80
2023/07/07 03:02:13;;;;;;;9.53;4.90;;;;;;;16.26;100.00;100477.41;1453688;89;22389;-80
2023/07/07 03:04:40;;;;;;;7.87;5.40;;;;;;;16.24;100.00;100475.73;1452499;89;21602;-79
2023/07/07 03:07:06;;;;;;;11.77;4.93;;;;;;;16.26;100.00;100474.23;1456538;90;21331;-80
2023/07/07 03:09:32;;;;;;;9.30;5.00;;;;;;;16.26;100.00;100477.41;1450667;88;21530;-80
2023/07/07 03:11:59;;;;;;;10.00;4.20;;;;;;;16.26;100.00;100482.75;1452741;88;21367;-81
2023/07/07 03:14:25;;;;;;;6.10;4.30;;;;;;;16.26;100.00;100482.75;1449246;89;21360;-81
2023/07/07 03:16:51;;;;;;;9.40;5.10;;;;;;;16.24;100.00;100488.25;1450879;89;22454;-83
2023/07/07 03:19:19;;;;;;;6.77;4.57;;;;;;;16.27;100.00;100487.06;1455036;88;22349;-80
2023/07/07 03:21:45;;;;;;;8.97;4.47;;;;;;;16.27;100.00;100494.56;1450046;89;21338;-83
2023/07/07 03:24:14;;;;;;;10.67;4.60;;;;;;;16.31;100.00;100485.67;1456910;89;21881;-80
2023/07/07 03:26:40;;;;;;;8.50;4.53;;;;;;;16.31;100.00;100484.34;1450714;89;21478;-82
2023/07/07 03:29:06;;;;;;;6.57;4.30;;;;;;;16.35;100.00;100486.98;1448253;89;21323;-83
2023/07/07 03:31:32;;;;;;;10.73;4.27;;;;;;;16.39;100.00;100489.08;1453586;90;22261;-83
2023/07/07 03:34:03;;;;;;;9.50;4.80;;;;;;;16.43;100.00;100489.56;1457791;89;21382;-82
2023/07/07 03:36:32;;;;;;;7.63;4.33;;;;;;;16.44;100.00;100484.53;1462483;90;21677;-83
2023/07/07 03:38:58;;;;;;;11.20;4.87;;;;;;;16.49;100.00;100490.16;1450033;90;21336;-83
2023/07/07 03:41:28;;;;;;;9.70;4.83;;;;;;;16.52;100.00;100492.46;1450485;89;21519;-82
2023/07/07 03:43:55;;;;;;;9.30;5.10;;;;;;;16.53;100.00;100491.44;1452705;90;22146;-83
2023/07/07 03:46:25;;;;;;;8.23;4.57;;;;;;;16.56;100.00;100486.23;1443454;89;21420;-82
2023/07/07 03:48:53;;;;;;;6.67;4.75;;;;;;;16.58;100.00;100482.37;1451574;89;21391;-83
2023/07/07 03:51:21;;;;;;;7.30;3.70;;;;;;;16.58;100.00;100477.02;1457000;89;21376;-82
2023/07/07 03:53:49;;;;;;;19.03;5.90;;;;;;;16.61;100.00;100479.32;1443675;89;21382;-80
2023/07/07 03:56:16;;;;;;;11.93;4.80;;;;;;;16.64;100.00;100473.61;1451389;88;22046;-81
2023/07/07 03:58:43;;;;;;;6.77;4.00;;;;;;;16.70;100.00;100478.20;1456918;88;21497;-81
2023/07/07 04:01:16;;;;;;;7.60;4.83;;;;;;;16.76;100.00;100479.81;1451855;89;21391;-81
2023/07/07 04:03:42;;;;;;;5.07;4.20;;;;;;;16.80;100.00;100485.13;1446280;89;22425;-83
2023/07/07 04:06:09;;;;;;;8.87;4.73;;;;;;;16.83;100.00;100488.75;1459938;89;21710;-82
2023/07/07 04:08:35;;;;;;;8.53;5.43;;;;;;;16.84;100.00;100487.77;1450992;88;21323;-82
2023/07/07 04:11:10;;;;;;;9.27;4.40;;;;;;;16.86;100.00;100485.70;1448464;90;21331;-83
2023/07/07 04:13:38;;;;;;;7.97;5.27;;;;;;;16.91;100.00;100490.81;1449103;88;21589;-83
2023/07/07 04:16:14;;;;;;;5.97;3.97;;;;;;;16.97;100.00;100491.91;1441266;88;21453;-81
2023/07/07 04:18:41;;;;;;;10.60;4.73;;;;;;;16.99;100.00;100487.22;1461848;90;21309;-81
2023/07/07 04:21:12;;;;;;;8.00;4.60;;;;;;;17.06;100.00;100488.13;1450782;88;22329;-80
2023/07/07 04:23:40;;;;;;;;;;;;;;;17.08;100.00;100490.09;1460686;88;21332;-81
2023/07/07 04:26:08;;;;;;;4.60;3.53;;;;;;;17.12;100.00;100492.72;1437287;88;20288;-81
2023/07/07 04:28:36;;;;;;;8.60;5.17;;;;;;;17.13;100.00;100491.70;1453860;90;21294;-81
2023/07/07 04:31:04;;;;;;;9.27;5.20;;;;;;;17.21;100.00;100496.62;1458706;88;22307;-80
2023/07/07 04:33:31;;;;;;;9.50;4.63;;;;;;;17.28;100.00;100498.84;1445933;88;21353;-80
2023/07/07 04:36:01;;;;;;;7.07;4.80;;;;;;;17.34;100.00;100506.11;1444062;90;21412;-81
2023/07/07 04:38:32;;;;;;;4.65;4.10;;;;;;;17.41;100.00;100504.34;1448536;88;21490;-80
2023/07/07 04:41:14;;;;;;;;;;;;;;;17.46;100.00;100502.42;1455348;88;21368;-82
2023/07/07 04:43:51;;;;;;;7.33;4.47;;;;;;;17.52;100.00;100497.64;1451147;90;20290;-80
2023/07/07 04:46:26;;;;;;;8.10;4.77;;;;;;;17.59;100.00;100514.09;1447663;88;21514;-82
2023/07/07 04:48:52;;;;;;;8.57;5.10;;;;;;;17.69;100.00;100518.28;1456459;88;22330;-81
2023/07/07 04:51:18;;;;;;;9.87;5.27;;;;;;;17.75;100.00;100505.47;1455428;88;21435;-82
2023/07/07 04:53:46;;;;;;;10.30;4.40;;;;;;;17.78;100.00;100505.96;1456033;88;22357;-84
2023/07/07 04:56:19;;;;;;;6.47;4.70;;;;;;;17.84;100.00;100509.72;1443439;88;21567;-83
2023/07/07 04:58:50;;;;;;;6.07;4.20;;;;;;;17.90;100.00;100511.62;1453202;88;21287;-82
2023/07/07 05:01:23;;;;;;;7.62;4.12;;;;;;;17.92;100.00;100518.92;1449965;88;21390;-82
2023/07/07 05:03:53;;;;;;;8.70;4.47;;;;;;;17.93;100.00;100513.91;1442444;88;21317;-83
2023/07/07 05:06:21;;;;;;;9.93;4.53;;;;;;;17.99;100.00;100518.48;1455473;88;21464;-86
2023/07/07 05:08:47;;;;;;;9.23;4.67;;;;;;;18.02;100.00;100518.09;1457415;90;21354;-85
2023/07/07 05:11:18;;;;;;;6.42;4.28;;;;;;;18.01;100.00;100517.78;1452114;89;21575;-85
2023/07/07 05:13:48;;;;;;;;;;;;;;;18.07;100.00;100522.03;1448663;89;21368;-85
2023/07/07 05:16:20;;;;;;;9.43;5.25;;;;;;;18.03;100.00;100522.94;1444392;90;20834;-87
2023/07/07 05:18:47;;;;;;;11.55;4.53;;;;;;;18.11;100.00;100522.80;1454598;89;21540;-88
2023/07/07 05:21:16;;;;;;;8.55;5.62;;;;;;;18.23;100.00;100521.75;1444204;88;22826;-88
2023/07/07 05:23:42;;;;;;;9.63;4.58;;;;;;;18.31;100.00;100521.60;1446342;89;22321;-83
2023/07/07 05:26:09;;;;;;;12.55;4.50;;;;;;;18.36;100.00;100527.20;1450540;89;21457;-80
2023/07/07 05:28:36;;;;;;;7.03;4.70;;;;;;;18.50;100.00;100518.74;1439879;90;22248;-81
2023/07/07 05:31:11;;;;;;;11.03;4.37;;;;;;;18.61;100.00;100515.48;1444976;90;21412;-78
2023/07/07 05:33:38;;;;;;;12.37;4.85;;;;;;;18.79;100.00;100524.39;1453723;90;21405;-79
2023/07/07 05:36:08;;;;;;;11.88;3.72;;;;;;;19.01;100.00;100526.94;1456456;90;21501;-79
2023/07/07 05:38:38;;;;;;;8.53;4.28;;;;;;;19.22;100.00;100521.47;1449426;90;21391;-77
2023/07/07 05:41:04;;;;;;;12.25;5.70;;;;;;;19.35;99.15;100526.84;1438115;89;21472;-80
2023/07/07 05:43:42;;;;;;;7.60;4.53;;;;;;;19.44;99.07;100524.80;1447802;89;21407;-80
2023/07/07 05:46:12;;;;;;;8.90;4.80;;;;;;;19.52;97.89;100525.95;1450187;89;21537;-79
2023/07/07 05:48:48;;;;;;;9.33;4.15;;;;;;;19.42;96.43;100534.94;1443454;89;21867;-79
2023/07/07 05:51:17;;;;;;;10.98;4.22;;;;;;;19.42;96.43;100534.94;1446182;89;21515;-78
2023/07/07 05:53:43;;;;;;;14.45;4.53;;;;;;;19.36;95.95;100532.55;1455285;89;21878;-78
2023/07/07 05:56:47;;;;;;;10.20;4.55;;;;;;;19.43;95.57;100535.75;1438318;90;21404;-78
2023/07/07 05:59:31;;;;;;;9.28;4.60;;;;;;;19.43;95.04;100537.09;1429902;89;22920;-77
2023/07/07 06:01:57;;;;;;;9.33;5.10;;;;;;;19.39;94.21;100541.53;1438829;88;21822;-79
2023/07/07 06:04:26;;;;;;;10.38;4.30;;;;;;;19.53;93.51;100541.54;1456532;88;21412;-80
2023/07/07 06:06:52;;;;;;;10.18;4.85;;;;;;;19.53;93.51;100541.54;1446890;89;21469;-80
2023/07/07 06:13:07;;;;;;;11.70;4.00;;;;;;;19.66;92.80;100540.78;1448189;90;21464;-78
2023/07/07 06:15:33;;;;;;;9.75;5.62;;;;;;;19.79;91.90;100548.34;1448945;89;21571;-79
2023/07/07 06:17:59;;;;;;;9.30;4.42;;;;;;;19.95;92.26;100557.03;1455973;89;21361;-79
2023/07/07 06:20:25;;;;;;;9.68;4.10;;;;;;;19.99;90.18;100564.97;1449253;90;21466;-80
2023/07/07 06:22:54;;;;;;;5.35;3.90;;;;;;;20.07;89.92;100567.46;1449340;89;21426;-78
2023/07/07 06:25:20;;;;;;;5.78;3.85;;;;;;;20.14;89.43;100564.27;1459044;89;21508;-79
2023/07/07 06:27:46;;;;;;;9.53;4.25;;;;;;;20.25;88.89;100563.65;1451765;88;21376;-79
2023/07/07 06:30:12;;;;;;;8.50;4.70;;;;;;;20.42;88.98;100566.70;1444747;90;21405;-80
2023/07/07 06:32:39;;;;;;;5.25;3.80;;;;;;;20.57;89.47;100571.06;1456713;90;21368;-79
2023/07/07 06:39:06;;;;;;;8.03;3.65;;;;;;;20.60;87.39;100562.08;1447128;90;21552;-80
2023/07/07 06:41:32;;;;;;;10.93;4.85;;;;;;;20.87;87.06;100584.34;1439703;90;22342;-78
2023/07/07 06:43:58;;;;;;;7.47;4.05;;;;;;;20.90;84.41;100586.61;1454249;89;21486;-79
2023/07/07 06:46:26;;;;;;;8.73;3.42;;;;;;;20.95;83.58;100588.67;1452420;89;21391;-80
2023/07/07 06:48:52;;;;;;;8.85;4.28;;;;;;;20.98;83.30;100581.52;1449335;89;21450;-80
2023/07/07 06:51:18;;;;;;;9.68;4.00;;;;;;;21.06;83.28;100582.64;1454581;89;21346;-81
2023/07/07 06:53:45;;;;;;;9.13;4.35;;;;;;;21.11;84.37;100581.45;1449662;89;22187;-80
2023/07/07 06:56:11;;;;;;;7.85;5.08;;;;;;;21.20;84.46;100587.42;1447573;90;21561;-79
2023/07/07 06:58:38;;;;;;;8.63;4.30;;;;;;;21.29;84.13;100592.04;1454122;89;21449;-80
2023/07/07 07:01:04;;;;;;;5.83;3.33;;;;;;;21.36;82.91;100600.44;1450242;89;22336;-80
2023/07/07 07:03:33;;;;;;;7.58;4.58;;;;;;;21.40;79.93;100602.17;1449396;89;21560;-77
2023/07/07 07:05:59;;;;;;;12.28;4.53;;;;;;;21.50;82.00;100605.23;1451222;89;21656;-83
2023/07/07 07:08:26;;;;;;;12.88;4.58;;;;;;;21.49;81.17;100598.22;1462802;89;22300;-82
2023/07/07 07:10:52;;;;;;;7.40;3.72;;;;;;;21.41;80.71;100607.88;1445806;89;21390;-83
2023/07/07 07:13:19;;;;;;;13.30;4.50;;;;;;;21.30;80.70;100607.17;1451523;89;21354;-81
2023/07/07 07:15:45;;;;;;;8.70;3.90;;;;;;;21.21;80.66;100607.11;1452943;89;21456;-77
2023/07/07 07:18:13;;;;;;;5.45;3.80;;;;;;;21.16;80.87;100612.59;1456966;89;21508;-82
2023/07/07 07:20:40;;;;;;;9.38;4.20;;;;;;;21.22;81.75;100616.30;1459533;90;21361;-83
2023/07/07 07:23:18;;;;;;;10.75;4.42;;;;;;;21.31;82.42;100616.89;1449220;89;21331;-83
2023/07/07 07:25:44;;;;;;;8.98;4.10;;;;;;;21.39;82.47;100616.69;1449097;89;21373;-83
2023/07/07 07:28:17;;;;;;;10.00;4.60;;;;;;;21.49;82.20;100621.10;1450746;89;21464;-83
2023/07/07 07:30:43;;;;;;;8.93;4.67;;;;;;;21.68;81.94;100626.59;1454247;89;21428;-82
2023/07/07 07:33:18;;;;;;;9.63;4.55;;;;;;;21.81;81.12;100631.38;1452007;90;21413;-83
2023/07/07 07:35:44;;;;;;;11.40;4.55;;;;;;;21.91;79.77;100632.24;1440993;89;21508;-81
2023/07/07 07:38:11;;;;;;;8.58;3.77;;;;;;;21.92;78.10;100626.33;1448867;90;21497;-82
2023/07/07 07:40:37;;;;;;;9.75;3.85;;;;;;;21.90;77.84;100634.64;1448570;89;21390;-83
2023/07/07 07:43:03;;;;;;;8.33;3.83;;;;;;;22.00;79.54;100632.80;1450697;89;21361;-81
2023/07/07 07:45:29;;;;;;;10.40;4.45;;;;;;;22.22;80.40;100637.36;1458558;89;21390;-82
2023/07/07 07:47:55;;;;;;;6.65;3.77;;;;;;;22.32;78.19;100636.32;1446636;90;21574;-82
2023/07/07 07:50:22;;;;;;;8.33;3.80;;;;;;;22.38;75.97;100646.22;1442724;88;21442;-82
2023/07/07 07:53:23;;;;;;;8.48;4.20;;;;;;;22.33;74.34;100639.34;1438605;89;22041;-81
2023/07/07 07:55:49;;;;;;;8.20;3.20;;;;;;;22.26;74.84;100643.95;1442069;90;21516;-81
2023/07/07 07:58:15;;;;;;;5.15;3.92;;;;;;;22.20;74.93;100648.34;1457081;89;21509;-81
2023/07/07 08:00:41;;;;;;;6.62;3.65;;;;;;;22.24;74.93;100653.62;1449385;90;21531;-81
2023/07/07 08:03:07;;;;;;;7.30;3.98;;;;;;;22.00;73.82;100653.02;1450187;89;21442;-81
2023/07/07 08:05:35;;;;;;;9.95;4.12;;;;;;;21.97;75.30;100653.45;1449415;89;22278;-83
2023/07/07 08:08:01;;;;;;;5.03;3.55;;;;;;;21.94;74.74;100656.05;1449885;89;21464;-84
2023/07/07 08:10:28;;;;;;;6.55;3.85;;;;;;;21.98;75.80;100661.33;1447818;90;21553;-80
2023/07/07 08:12:54;;;;;;;6.35;3.95;;;;;;;21.90;75.42;100661.59;1443593;89;21449;-82
2023/07/07 08:15:20;;;;;;;7.08;3.75;;;;;;;22.02;76.20;100666.58;1445240;89;21406;-83
2023/07/07 08:17:46;;;;;;;6.67;3.55;;;;;;;21.98;74.91;100668.07;1452336;89;21505;-82
2023/07/07 08:20:19;;;;;;;9.00;3.72;;;;;;;22.07;76.34;100663.25;1446638;90;21345;-82
2023/07/07 08:22:45;;;;;;;8.53;4.50;;;;;;;22.17;76.24;100666.80;1457762;89;21346;-83
2023/07/07 08:25:11;;;;;;;7.20;3.37;;;;;;;22.25;75.80;100665.22;1445331;89;22292;-81
2023/07/07 08:27:38;;;;;;;6.62;3.65;;;;;;;22.37;76.43;100666.16;1449037;90;21347;-81
2023/07/07 08:30:05;;;;;;;8.15;4.10;;;;;;;22.51;75.03;100666.34;1450408;89;21449;-82
2023/07/07 08:32:31;;;;;;;6.70;3.72;;;;;;;22.77;75.91;100663.64;1458118;89;21627;-83
2023/07/07 08:34:57;;;;;;;6.22;3.58;;;;;;;23.13;77.22;100658.81;1451471;89;21389;-82
2023/07/07 08:37:25;;;;;;;8.93;3.87;;;;;;;23.42;74.69;100663.48;1454832;89;21520;-81
2023/07/07 08:39:52;;;;;;;10.75;3.47;;;;;;;23.71;73.94;100668.32;1439922;89;22314;-81
2023/07/07 08:42:32;;;;;;;7.78;3.75;;;;;;;23.67;70.54;100668.46;1456023;89;21442;-82
2023/07/07 08:45:03;;;;;;;12.35;4.10;;;;;;;23.83;71.23;100667.86;1446595;89;21478;-83
2023/07/07 08:47:59;;;;;;;6.72;4.08;;;;;;;24.02;72.02;100676.73;1459964;90;22417;-82
2023/07/07 08:50:37;;;;;;;6.50;3.45;;;;;;;24.13;69.91;100674.59;1450927;89;22552;-82
2023/07/07 08:53:30;;;;;;;7.85;3.72;;;;;;;24.23;68.93;100676.22;1450441;88;21397;-83
2023/07/07 08:56:25;;;;;;;7.47;4.50;;;;;;;24.12;67.60;100675.66;1443520;90;22452;-83
2023/07/07 08:59:08;;;;;;;9.20;4.00;;;;;;;24.08;70.43;100674.45;1453359;89;21504;-82
2023/07/07 09:01:45;;;;;;;9.90;4.50;;;;;;;23.98;70.80;100673.66;1451639;89;21332;-82
2023/07/07 09:04:32;;;;;;;6.25;3.92;;;;;;;23.95;68.92;100680.06;1446827;90;21448;-81
2023/07/07 09:07:28;;;;;;;6.53;3.40;;;;;;;23.96;69.73;100674.95;1449421;89;21540;-81
2023/07/07 09:10:15;;;;;;;4.97;3.52;;;;;;;24.14;70.39;100672.20;1452717;89;21531;-82
2023/07/07 09:12:47;;;;;;;11.63;4.40;;;;;;;24.27;67.37;100677.39;1446883;90;21346;-80
2023/07/07 09:15:24;;;;;;;7.55;4.40;;;;;;;24.47;69.12;100668.16;1457160;90;21463;-80
2023/07/07 09:17:55;;;;;;;8.83;3.80;;;;;;;24.65;68.84;100672.11;1426705;89;22434;-80
2023/07/07 09:20:24;;;;;;;7.08;3.87;;;;;;;24.61;67.66;100665.53;1453176;90;21597;-79
2023/07/07 09:23:11;;;;;;;13.45;4.08;;;;;;;24.59;67.61;100662.23;1448178;90;21331;-80
2023/07/07 09:25:48;;;;;;;6.28;3.80;;;;;;;24.50;68.14;100664.98;1454302;90;21509;-79
2023/07/07 09:28:15;;;;;;;4.87;3.45;;;;;;;24.67;69.06;100660.53;1466893;89;22970;-79
2023/07/07 09:30:57;;;;;;;4.30;3.22;;;;;;;24.86;68.83;100665.81;1456133;90;21361;-79
2023/07/07 09:33:25;;;;;;;7.70;3.70;;;;;;;25.03;66.99;100661.34;1451258;89;21287;-80
2023/07/07 09:36:08;;;;;;;7.30;3.58;;;;;;;25.10;67.95;100663.92;1454562;89;21382;-78
2023/07/07 09:39:13;;;;;;;5.65;3.98;;;;;;;25.10;65.93;100666.09;1460030;89;21546;-80
2023/07/07 09:41:51;;;;;;;7.00;4.28;;;;;;;25.09;66.17;100660.39;1454125;89;21406;-79
2023/07/07 09:44:29;;;;;;;4.83;3.27;;;;;;;25.32;67.69;100660.91;1454875;89;21512;-79
2023/07/07 09:47:15;;;;;;;6.05;3.60;;;;;;;25.41;66.02;100657.29;1449146;90;21830;-78
2023/07/07 09:50:05;;;;;;;7.72;3.62;;;;;;;25.39;66.21;100662.94;1443964;90;21641;-79
2023/07/07 09:52:54;;;;;;;7.20;4.10;;;;;;;25.43;67.32;100668.69;1453818;89;21747;-78
2023/07/07 09:55:25;;;;;;;6.80;3.87;;;;;;;25.56;65.50;100658.94;1446247;90;21405;-79
2023/07/07 09:58:16;;;;;;;4.17;3.62;;;;;;;25.66;66.13;100661.86;1451651;89;21383;-79
2023/07/07 10:00:48;;;;;;;7.60;3.67;;;;;;;25.52;64.46;100657.79;1451568;89;22488;-79
2023/07/07 10:03:25;;;;;;;5.87;3.65;;;;;;;25.60;65.97;100651.96;1447699;89;22476;-79
2023/07/07 10:05:54;;;;;;;8.48;3.47;;;;;;;25.67;65.21;100664.03;1454447;89;22337;-78
2023/07/07 10:08:20;;;;;;;8.48;4.03;;;;;;;25.61;66.14;100664.47;1450939;89;22395;-79
2023/07/07 10:10:58;;;;;;;6.70;3.65;;;;;;;25.63;65.68;100657.43;1455978;89;21546;-80
2023/07/07 10:13:25;;;;;;;9.73;3.67;;;;;;;25.45;63.17;100653.02;1408019;92;21646;-80
2023/07/07 10:16:02;;;;;;;5.17;3.45;;;;;;;25.48;64.75;100663.38;1454040;89;21485;-79
2023/07/07 10:18:32;;;;;;;5.70;3.98;;;;;;;25.60;64.34;100663.34;1452579;89;21523;-79
2023/07/07 10:21:02;;;;;;;;;;;;;;;25.61;64.15;100665.00;1449097;90;22762;-80
2023/07/07 10:23:29;;;;;;;5.53;3.50;;;;;;;25.68;63.47;100656.18;1445648;89;20761;-79
2023/07/07 10:25:55;;;;;;;7.05;3.92;;;;;;;25.61;63.24;100663.11;1455565;89;21294;-80
2023/07/07 10:28:24;;;;;;;13.35;4.45;;;;;;;25.80;64.01;100665.61;1447262;89;21368;-79
2023/07/07 10:30:51;;;;;;;8.00;4.03;;;;;;;25.96;63.77;100665.41;1442409;90;21419;-79
2023/07/07 10:33:21;;;;;;;5.85;3.33;;;;;;;25.99;63.68;100663.02;1441982;90;23091;-79
2023/07/07 10:35:49;;;;;;;7.00;3.65;;;;;;;26.03;62.54;100659.28;1447582;89;21702;-79
2023/07/07 10:38:15;;;;;;;7.92;3.50;;;;;;;26.17;63.19;100661.16;1457108;89;21383;-79
2023/07/07 10:40:42;;;;;;;5.60;3.55;;;;;;;26.39;63.32;100653.94;1458354;89;21642;-79
2023/07/07 10:43:15;;;;;;;8.20;3.60;;;;;;;26.36;60.47;100651.72;1461048;88;21368;-79
2023/07/07 10:45:47;;;;;;;7.08;4.45;;;;;;;26.52;61.12;100654.97;1454042;90;22144;-80
2023/07/07 10:48:15;;;;;;;5.67;4.20;;;;;;;26.41;61.42;100644.99;1440438;88;21346;-79
2023/07/07 10:50:58;;;;;;;10.45;3.58;;;;;;;26.04;62.46;100650.10;1457062;89;22931;-78
2023/07/07 10:53:36;;;;;;;6.47;4.40;;;;;;;25.49;60.81;100647.44;1446851;89;21471;-79
2023/07/07 10:56:17;;;;;;;5.97;4.03;;;;;;;25.48;62.43;100651.72;1441356;89;21604;-79
2023/07/07 10:59:28;;;;;;;8.73;3.65;;;;;;;25.85;64.31;100653.55;1446721;90;21619;-79
2023/07/07 11:02:35;;;;;;;5.60;3.98;;;;;;;25.61;61.41;100650.09;1450865;89;21411;-80
2023/07/07 11:05:34;;;;;;;9.95;4.10;;;;;;;25.37;63.20;100650.69;1455999;89;22792;-78
2023/07/07 11:08:21;;;;;;;7.37;5.03;;;;;;;25.41;63.95;100655.94;1452675;89;21620;-78
2023/07/07 11:11:13;;;;;;;7.22;4.53;;;;;;;25.82;64.08;100647.23;1459252;90;21397;-79
2023/07/07 11:14:17;;;;;;;10.85;4.72;;;;;;;26.08;63.36;100658.02;1449921;88;21389;-79
2023/07/07 11:17:00;;;;;;;10.18;4.62;;;;;;;26.15;63.19;100649.72;1458780;88;21302;-79
2023/07/07 11:19:43;;;;;;;6.97;4.25;;;;;;;26.00;63.07;100653.81;1451821;89;21435;-78
2023/07/07 11:22:36;;;;;;;5.37;4.10;;;;;;;25.63;61.31;100648.77;1443655;88;21542;-78
2023/07/07 11:25:23;;;;;;;7.75;4.33;;;;;;;25.66;62.80;100649.66;1457008;89;22225;-79
2023/07/07 11:28:07;;;;;;;5.15;3.92;;;;;;;25.85;63.68;100652.20;1440191;90;21448;-78
2023/07/07 11:30:57;;;;;;;7.70;4.55;;;;;;;25.98;62.42;100651.90;1449235;88;21450;-78
2023/07/07 11:33:49;;;;;;;7.87;4.50;;;;;;;26.01;62.59;100647.34;1447420;90;21463;-77
2023/07/07 11:36:50;;;;;;;4.83;4.25;;;;;;;26.09;63.09;100648.27;1455894;88;21612;-79
2023/07/07 11:39:34;;;;;;;7.40;4.60;;;;;;;26.34;62.50;100642.45;1455807;90;21398;-80
2023/07/07 11:42:35;;;;;;;8.83;4.95;;;;;;;26.36;61.70;100641.41;1457661;88;21500;-79
2023/07/07 11:45:34;;;;;;;10.63;4.12;;;;;;;26.41;62.83;100646.89;1451588;89;22440;-79
2023/07/07 11:48:19;;;;;;;6.70;4.35;;;;;;;26.54;60.38;100643.34;1444350;90;22916;-79
2023/07/07 11:51:14;;;;;;;6.33;4.15;;;;;;;26.47;60.44;100650.81;1447863;89;21485;-79
2023/07/07 11:54:22;;;;;;;8.93;4.30;;;;;;;26.43;60.28;100646.94;1446174;89;21515;-79
2023/07/07 11:57:02;;;;;;;5.83;4.42;;;;;;;26.28;61.45;100646.70;1453006;88;21441;-78
2023/07/07 11:59:56;;;;;;;7.20;4.33;;;;;;;26.16;63.92;100649.48;1447256;89;22498;-79
2023/07/07 12:02:28;;;;;;;9.98;5.15;;;;;;;25.88;61.45;100651.16;1435985;89;21404;-79
2023/07/07 12:04:57;;;;;;;7.00;4.03;;;;;;;25.88;61.58;100648.45;1449418;90;21383;-80
2023/07/07 12:07:47;;;;;;;4.80;4.28;;;;;;;26.21;63.23;100661.79;1450407;88;21560;-80
2023/07/07 12:10:26;;;;;;;7.37;4.05;;;;;;;26.25;61.11;100656.69;1453991;90;21428;-79
2023/07/07 12:13:06;;;;;;;10.25;4.47;;;;;;;26.25;60.40;100649.91;1454748;89;21405;-79
2023/07/07 12:15:38;;;;;;;7.15;4.10;;;;;;;26.21;60.51;100656.88;1438849;90;21419;-79
2023/07/07 12:18:15;;;;;;;9.78;4.80;;;;;;;26.34;60.75;100647.06;1456640;89;21412;-79
2023/07/07 12:21:19;;;;;;;7.17;4.50;;;;;;;26.37;61.02;100657.97;1446582;89;21376;-79
2023/07/07 12:24:07;;;;;;;5.12;3.85;;;;;;;26.43;60.65;100652.36;1452287;89;21471;-80
2023/07/07 12:26:38;;;;;;;10.15;4.72;;;;;;;26.03;60.16;100662.00;1452774;89;21361;-79
2023/07/07 12:29:06;;;;;;;5.97;4.65;;;;;;;25.95;61.61;100660.52;1452298;89;21435;-78
2023/07/07 12:31:33;;;;;;;9.18;5.25;;;;;;;25.84;62.29;100658.69;1451152;89;22653;-80
2023/07/07 12:34:20;;;;;;;12.18;5.42;;;;;;;25.57;63.13;100661.93;1455545;89;21523;-80
2023/07/07 12:36:47;;;;;;;5.95;4.42;;;;;;;25.57;63.43;100655.16;1463866;90;21448;-78
2023/07/07 12:39:13;;;;;;;10.05;4.65;;;;;;;25.49;63.54;100660.13;1451853;89;21522;-78
2023/07/07 12:41:39;;;;;;;8.53;4.55;;;;;;;25.49;63.14;100660.98;1447756;90;21427;-79
2023/07/07 12:44:06;;;;;;;9.45;5.00;;;;;;;25.43;63.57;100660.56;1448174;89;21449;-79
2023/07/07 12:46:35;;;;;;;5.70;4.17;;;;;;;25.36;64.53;100658.53;1455722;90;21376;-80
2023/07/07 12:49:09;;;;;;;11.30;6.00;;;;;;;25.56;64.60;100657.59;1455952;89;21530;-78
2023/07/07 12:51:37;;;;;;;11.18;5.05;;;;;;;25.82;64.63;100659.42;1451254;89;21405;-83
2023/07/07 12:54:03;;;;;;;7.65;4.90;;;;;;;26.04;64.48;100664.48;1441728;90;21509;-81